createdAt,value
2022-07-30T00:02:21.974Z,101883.41
2022-07-30T00:04:54.611Z,101874.06
2022-07-30T00:07:21.305Z,101875.13
2022-07-30T00:09:47.956Z,101884.25
2022-07-30T00:12:15.226Z,101874.84
2022-07-30T00:14:42.156Z,101870.72
2022-07-30T00:17:08.950Z,101876.38
2022-07-30T00:19:35.959Z,101877.31
2022-07-30T00:22:02.684Z,101877.47
2022-07-30T00:24:29.529Z,101882.31
2022-07-30T00:26:56.214Z,101879.28
2022-07-30T00:29:22.876Z,101885.91
2022-07-30T00:31:49.527Z,101884.94
2022-07-30T00:34:16.166Z,101882.97
2022-07-30T00:36:42.901Z,101889.38
2022-07-30T00:39:09.719Z,101874.34
2022-07-30T00:41:56.628Z,101882.13
2022-07-30T00:44:23.451Z,101870.25
2022-07-30T00:46:50.131Z,101873.47
2022-07-30T00:49:16.863Z,101865.72
2022-07-30T00:51:43.609Z,101881.88
2022-07-30T00:54:10.322Z,101875.56
2022-07-30T00:56:37.101Z,101870.28
2022-07-30T00:59:04.235Z,101875.06
2022-07-30T01:01:33.953Z,101870.84
2022-07-30T01:04:00.645Z,101876.38
2022-07-30T01:06:27.324Z,101873.69
2022-07-30T01:08:54.498Z,101871.84
2022-07-30T01:11:28.124Z,101866.41
2022-07-30T01:13:54.763Z,101877.97
2022-07-30T01:16:21.741Z,101869.94
2022-07-30T01:19:08.457Z,101872.63
2022-07-30T01:21:40.285Z,101875.38
2022-07-30T01:24:42.927Z,101872.69
2022-07-30T01:27:11.278Z,101876.19
2022-07-30T01:29:41.133Z,101867.16
2022-07-30T01:32:09.070Z,101875.78
2022-07-30T01:34:37.191Z,101876.38
2022-07-30T01:37:05.547Z,101877.91
2022-07-30T01:39:33.532Z,101879.66
2022-07-30T01:42:05.421Z,101867.25
2022-07-30T01:44:33.104Z,101873.56
2022-07-30T01:47:01.956Z,101871.84
2022-07-30T01:49:29.956Z,101877.34
2022-07-30T01:51:58.819Z,101871.28
2022-07-30T01:54:27.514Z,101871.44
2022-07-30T01:56:57.679Z,101860.56
2022-07-30T01:59:26.845Z,101863.03
2022-07-30T02:01:53.551Z,101857.91
2022-07-30T02:04:20.611Z,101855.34
2022-07-30T02:07:00.097Z,101860.97
2022-07-30T02:09:33.914Z,101856.63
2022-07-30T02:12:20.562Z,101856.53
2022-07-30T02:14:52.435Z,101853.66
2022-07-30T02:17:30.095Z,101847.25
2022-07-30T02:20:09.308Z,101854.34
2022-07-30T02:22:39.908Z,101851.75
2022-07-30T02:25:09.052Z,101856.44
2022-07-30T02:27:38.974Z,101853.84
2022-07-30T02:30:07.076Z,101855.69
2022-07-30T02:32:37.595Z,101849.41
2022-07-30T02:35:31.957Z,101860.84
2022-07-30T02:38:01.002Z,101860.16
2022-07-30T02:40:28.892Z,101857.91
2022-07-30T02:42:57.235Z,101859.03
2022-07-30T02:45:25.372Z,101855.63
2022-07-30T02:47:57.301Z,101857.56
2022-07-30T02:50:25.227Z,101853.63
2022-07-30T02:52:54.498Z,101855.78
2022-07-30T02:55:23.051Z,101860.47
2022-07-30T02:57:52.561Z,101861.28
2022-07-30T03:00:20.654Z,101867.41
2022-07-30T03:02:47.744Z,101861.19
2022-07-30T03:05:15.978Z,101879.06
2022-07-30T03:07:44.447Z,101874.66
2022-07-30T03:10:12.602Z,101875.53
2022-07-30T03:12:42.185Z,101861.28
2022-07-30T03:15:09.458Z,101859.63
2022-07-30T03:17:40.247Z,101860.47
2022-07-30T03:20:13.096Z,101856.69
2022-07-30T03:22:48.194Z,101852.03
2022-07-30T03:25:18.231Z,101857.25
2022-07-30T03:27:45.545Z,101866.03
2022-07-30T03:30:13.483Z,101858.84
2022-07-30T03:32:41.447Z,101856.09
2022-07-30T03:35:16.952Z,101842.91
2022-07-30T03:37:45.169Z,101849.00
2022-07-30T03:40:13.677Z,101852.41
2022-07-30T03:42:40.402Z,101847.88
2022-07-30T03:45:09.064Z,101835.00
2022-07-30T03:47:39.575Z,101844.44
2022-07-30T03:50:06.727Z,101838.72
2022-07-30T03:52:37.328Z,101830.50
2022-07-30T03:55:12.121Z,101838.28
2022-07-30T03:57:39.077Z,101837.00
2022-07-30T04:00:08.704Z,101834.00
2022-07-30T04:02:45.979Z,101837.22
2022-07-30T04:05:13.918Z,101827.22
2022-07-30T04:07:41.382Z,101830.63
2022-07-30T04:10:12.618Z,101830.38
2022-07-30T04:12:39.284Z,101823.06
2022-07-30T04:16:38.014Z,101824.50
2022-07-30T04:17:58.254Z,101814.50
2022-07-30T04:20:29.644Z,101814.34
2022-07-30T04:22:58.312Z,101815.06
2022-07-30T04:25:25.675Z,101805.91
2022-07-30T04:28:03.231Z,101809.41
2022-07-30T04:30:33.434Z,101814.47
2022-07-30T04:33:00.192Z,101814.19
2022-07-30T04:35:51.271Z,101808.66
2022-07-30T04:38:19.934Z,101813.78
2022-07-30T04:40:46.965Z,101814.66
2022-07-30T04:43:13.563Z,101819.06
2022-07-30T04:45:41.452Z,101820.72
2022-07-30T04:48:08.235Z,101818.75
2022-07-30T04:50:38.636Z,101812.38
2022-07-30T04:53:05.795Z,101817.63
2022-07-30T04:55:34.050Z,101814.69
2022-07-30T04:58:02.443Z,101805.63
2022-07-30T05:00:32.322Z,101809.81
2022-07-30T05:03:00.912Z,101813.22
2022-07-30T05:05:28.514Z,101810.28
2022-07-30T05:07:55.636Z,101806.66
2022-07-30T05:10:22.385Z,101810.28
2022-07-30T05:12:48.991Z,101811.31
2022-07-30T05:15:16.045Z,101808.56
2022-07-30T05:17:42.775Z,101808.38
2022-07-30T05:20:09.965Z,101802.78
2022-07-30T05:22:36.580Z,101807.31
2022-07-30T05:25:16.180Z,101803.75
2022-07-30T05:27:43.071Z,101800.00
2022-07-30T05:30:10.341Z,101800.66
2022-07-30T05:32:38.957Z,101804.81
2022-07-30T05:35:05.911Z,101784.78
2022-07-30T05:37:33.694Z,101788.94
2022-07-30T05:40:03.214Z,101794.94
2022-07-30T05:42:30.488Z,101787.50
2022-07-30T05:44:57.163Z,101790.88
2022-07-30T05:47:23.783Z,101791.59
2022-07-30T05:49:50.404Z,101802.19
2022-07-30T05:52:19.506Z,101794.13
2022-07-30T05:54:46.118Z,101789.69
2022-07-30T05:57:12.743Z,101800.44
2022-07-30T05:59:39.320Z,101802.09
2022-07-30T06:02:06.964Z,101796.47
2022-07-30T06:04:35.685Z,101792.50
2022-07-30T06:07:02.757Z,101792.34
2022-07-30T06:09:36.328Z,101798.34
2022-07-30T06:12:04.476Z,101788.22
2022-07-30T06:14:32.298Z,101801.56
2022-07-30T06:16:59.402Z,101799.03
2022-07-30T06:19:26.486Z,101799.94
2022-07-30T06:22:06.092Z,101796.13
2022-07-30T06:24:33.792Z,101785.09
2022-07-30T06:27:01.095Z,101798.53
2022-07-30T06:29:28.227Z,101795.00
2022-07-30T06:31:54.812Z,101793.97
2022-07-30T06:34:21.517Z,101789.63
2022-07-30T06:36:48.941Z,101783.28
2022-07-30T06:39:56.623Z,101790.16
2022-07-30T06:42:02.656Z,101791.63
2022-07-30T06:44:29.456Z,101787.66
2022-07-30T06:46:56.099Z,101775.41
2022-07-30T06:49:23.229Z,101779.16
2022-07-30T06:51:49.892Z,101769.59
2022-07-30T06:54:16.597Z,101774.34
2022-07-30T06:56:43.820Z,101779.16
2022-07-30T06:59:10.511Z,101775.00
2022-07-30T07:01:37.237Z,101775.50
2022-07-30T07:04:04.463Z,101777.84
2022-07-30T07:06:31.120Z,101779.19
2022-07-30T07:08:57.783Z,101782.41
2022-07-30T07:11:24.480Z,101778.28
2022-07-30T07:13:51.114Z,101771.47
2022-07-30T07:16:21.752Z,101772.75
2022-07-30T07:18:48.767Z,101762.16
2022-07-30T07:21:15.904Z,101754.44
2022-07-30T07:23:42.625Z,101761.97
2022-07-30T07:26:09.818Z,101753.41
2022-07-30T07:28:36.532Z,101760.16
2022-07-30T07:31:03.477Z,101764.97
2022-07-30T07:33:30.208Z,101760.91
2022-07-30T07:35:56.848Z,101760.41
2022-07-30T07:38:23.570Z,101756.38
2022-07-30T07:40:50.260Z,101759.97
2022-07-30T07:43:16.977Z,101748.28
2022-07-30T07:45:43.795Z,101752.91
2022-07-30T07:48:10.444Z,101753.72
2022-07-30T07:50:37.432Z,101743.81
2022-07-30T07:53:04.356Z,101747.72
2022-07-30T07:55:31.708Z,101734.97
2022-07-30T07:58:00.260Z,101739.66
2022-07-30T08:00:26.978Z,101736.31
2022-07-30T08:02:53.632Z,101740.94
2022-07-30T08:05:20.345Z,101737.63
2022-07-30T08:07:47.070Z,101747.19
2022-07-30T08:10:16.135Z,101748.78
2022-07-30T08:12:43.359Z,101737.97
2022-07-30T08:15:10.344Z,101741.78
2022-07-30T08:17:44.123Z,101730.97
2022-07-30T08:20:12.979Z,101731.59
2022-07-30T08:22:39.700Z,101733.97
2022-07-30T08:25:06.721Z,101735.25
2022-07-30T08:27:33.729Z,101730.41
2022-07-30T08:30:08.299Z,101727.16
2022-07-30T08:32:35.824Z,101729.19
2022-07-30T08:35:04.079Z,101725.16
2022-07-30T08:37:31.107Z,101729.38
2022-07-30T08:39:57.804Z,101732.63
2022-07-30T08:42:24.669Z,101734.88
2022-07-30T08:44:53.895Z,101727.28
2022-07-30T08:47:25.903Z,101732.59
2022-07-30T08:49:53.211Z,101727.06
2022-07-30T08:52:20.152Z,101726.06
2022-07-30T08:54:46.890Z,101723.38
2022-07-30T08:57:15.222Z,101724.91
2022-07-30T08:59:52.956Z,101725.44
2022-07-30T09:02:30.890Z,101707.88
2022-07-30T09:04:57.787Z,101715.44
2022-07-30T09:07:24.461Z,101706.63
2022-07-30T09:09:51.157Z,101705.19
2022-07-30T09:12:37.328Z,101697.34
2022-07-30T09:15:10.135Z,101701.44
2022-07-30T09:17:57.160Z,101710.69
2022-07-30T09:20:26.344Z,101694.81
2022-07-30T09:22:56.536Z,101699.78
2022-07-30T09:25:47.907Z,101695.84
2022-07-30T09:28:21.835Z,101680.72
2022-07-30T09:30:53.867Z,101692.75
2022-07-30T09:33:40.206Z,101690.16
2022-07-30T09:36:09.803Z,101685.47
2022-07-30T09:38:45.721Z,101685.13
2022-07-30T09:41:23.073Z,101689.34
2022-07-30T09:44:02.836Z,101681.75
2022-07-30T09:46:52.980Z,101681.25
2022-07-30T09:49:21.765Z,101675.75
2022-07-30T09:51:54.268Z,101684.72
2022-07-30T09:54:23.989Z,101676.16
2022-07-30T09:57:05.861Z,101674.13
2022-07-30T09:59:49.252Z,101672.94
2022-07-30T10:02:16.163Z,101678.16
2022-07-30T10:04:43.487Z,101682.06
2022-07-30T10:07:25.167Z,101673.69
2022-07-30T10:09:53.444Z,101673.56
2022-07-30T10:12:24.176Z,101677.88
2022-07-30T10:14:54.346Z,101675.16
2022-07-30T10:17:22.800Z,101663.19
2022-07-30T10:19:49.543Z,101675.88
2022-07-30T10:22:17.245Z,101668.59
2022-07-30T10:24:47.834Z,101672.69
2022-07-30T10:27:16.376Z,101669.94
2022-07-30T10:29:45.610Z,101664.25
2022-07-30T10:32:14.069Z,101661.22
2022-07-30T10:34:42.371Z,101662.66
2022-07-30T10:37:12.713Z,101657.81
2022-07-30T10:39:55.095Z,101657.59
2022-07-30T10:42:36.882Z,101658.69
2022-07-30T10:45:46.285Z,101664.03
2022-07-30T10:48:14.031Z,101657.41
2022-07-30T10:50:56.484Z,101657.59
2022-07-30T10:53:47.694Z,101651.88
2022-07-30T10:56:25.811Z,101642.81
2022-07-30T10:59:03.526Z,101651.22
2022-07-30T11:01:51.684Z,101652.31
2022-07-30T11:04:30.104Z,101641.78
2022-07-30T11:07:21.190Z,101642.41
2022-07-30T11:10:00.039Z,101648.47
2022-07-30T11:12:45.464Z,101639.13
2022-07-30T11:15:19.240Z,101624.81
2022-07-30T11:18:12.287Z,101634.84
2022-07-30T11:20:40.822Z,101628.34
2022-07-30T11:23:19.448Z,101625.63
2022-07-30T11:25:51.238Z,101624.38
2022-07-30T11:28:40.291Z,101618.31
2022-07-30T11:31:36.970Z,101608.84
2022-07-30T11:34:25.870Z,101618.06
2022-07-30T11:37:18.724Z,101606.34
2022-07-30T11:39:58.009Z,101601.16
2022-07-30T11:42:33.586Z,101602.38
2022-07-30T11:45:18.567Z,101604.66
2022-07-30T11:47:51.558Z,101606.09
2022-07-30T11:50:25.951Z,101605.25
2022-07-30T11:52:54.925Z,101609.38
2022-07-30T11:55:25.788Z,101602.06
2022-07-30T11:57:53.415Z,101610.16
2022-07-30T12:00:21.199Z,101617.03
2022-07-30T12:05:25.182Z,101595.66
2022-07-30T12:07:57.775Z,101602.81
2022-07-30T12:10:26.763Z,101604.81
2022-07-30T12:13:10.298Z,101608.03
2022-07-30T12:15:44.829Z,101601.69
2022-07-30T12:18:28.846Z,101603.09
2022-07-30T12:20:59.581Z,101603.09
2022-07-30T12:23:30.519Z,101599.94
2022-07-30T12:25:58.397Z,101607.94
2022-07-30T12:28:27.952Z,101602.00
2022-07-30T12:30:56.035Z,101602.09
2022-07-30T12:33:23.768Z,101602.38
2022-07-30T12:35:53.144Z,101599.06
2022-07-30T12:38:21.019Z,101595.47
2022-07-30T12:41:06.312Z,101600.16
2022-07-30T12:43:47.858Z,101598.13
2022-07-30T12:46:17.632Z,101598.13
2022-07-30T12:48:54.954Z,101591.09
2022-07-30T12:51:24.316Z,101587.88
2022-07-30T12:53:52.997Z,101592.00
2022-07-30T12:56:25.716Z,101597.22
2022-07-30T12:58:52.784Z,101592.75
2022-07-30T13:01:19.804Z,101597.13
2022-07-30T13:03:46.624Z,101602.34
2022-07-30T13:06:14.369Z,101600.19
2022-07-30T13:08:58.142Z,101598.44
2022-07-30T13:11:28.081Z,101604.72
2022-07-30T13:13:55.439Z,101596.25
2022-07-30T13:16:22.131Z,101605.81
2022-07-30T13:18:48.840Z,101597.69
2022-07-30T13:21:15.505Z,101596.59
2022-07-30T13:23:42.231Z,101595.16
2022-07-30T13:26:12.066Z,101584.53
2022-07-30T13:28:38.942Z,101588.38
2022-07-30T13:31:07.668Z,101577.66
2022-07-30T13:33:35.823Z,101582.22
2022-07-30T13:36:02.530Z,101580.38
2022-07-30T13:38:30.005Z,101569.53
2022-07-30T13:41:00.505Z,101570.13
2022-07-30T13:43:29.257Z,101567.88
2022-07-30T13:46:00.612Z,101562.19
2022-07-30T13:48:27.281Z,101562.78
2022-07-30T13:50:53.927Z,101556.09
2022-07-30T13:53:20.888Z,101560.03
2022-07-30T13:55:47.549Z,101558.06
2022-07-30T13:58:15.054Z,101551.78
2022-07-30T14:00:42.508Z,101555.22
2022-07-30T14:03:11.440Z,101552.38
2022-07-30T14:05:42.244Z,101544.06
2022-07-30T14:08:11.009Z,101545.94
2022-07-30T14:10:39.947Z,101543.81
2022-07-30T14:13:08.079Z,101534.81
2022-07-30T14:15:34.773Z,101538.84
2022-07-30T14:18:01.874Z,101540.72
2022-07-30T14:20:29.308Z,101528.44
2022-07-30T14:22:56.351Z,101532.97
2022-07-30T14:25:23.091Z,101525.25
2022-07-30T14:27:50.854Z,101520.06
2022-07-30T14:30:17.612Z,101511.69
2022-07-30T14:32:45.155Z,101512.88
2022-07-30T14:35:13.002Z,101514.00
2022-07-30T14:37:40.493Z,101515.81
2022-07-30T14:40:12.017Z,101507.59
2022-07-30T14:42:40.178Z,101512.09
2022-07-30T14:45:10.648Z,101504.22
2022-07-30T14:47:37.610Z,101496.94
2022-07-30T14:50:04.633Z,101505.38
2022-07-30T14:52:35.009Z,101512.91
2022-07-30T14:55:03.920Z,101497.97
2022-07-30T14:57:30.807Z,101506.25
2022-07-30T14:59:57.477Z,101505.25
2022-07-30T15:02:31.307Z,101499.66
2022-07-30T15:04:58.079Z,101504.31
2022-07-30T15:07:24.732Z,101502.66
2022-07-30T15:09:51.366Z,101498.91
2022-07-30T15:12:20.121Z,101501.16
2022-07-30T15:14:56.165Z,101487.50
2022-07-30T15:17:22.804Z,101492.28
2022-07-30T15:19:50.765Z,101492.00
2022-07-30T15:22:22.153Z,101484.25
2022-07-30T15:24:49.119Z,101485.66
2022-07-30T15:27:15.831Z,101478.41
2022-07-30T15:29:42.914Z,101478.72
2022-07-30T15:32:09.502Z,101475.72
2022-07-30T15:34:36.226Z,101477.19
2022-07-30T15:37:03.977Z,101476.19
2022-07-30T15:39:33.178Z,101482.00
2022-07-30T15:42:02.233Z,101472.91
2022-07-30T15:44:29.506Z,101477.84
2022-07-30T15:46:56.221Z,101476.06
2022-07-30T15:49:22.978Z,101484.19
2022-07-30T15:51:49.778Z,101477.28
2022-07-30T15:54:22.461Z,101472.50
2022-07-30T15:56:50.742Z,101479.38
2022-07-30T15:59:17.621Z,101470.53
2022-07-30T16:01:44.478Z,101467.66
2022-07-30T16:04:18.402Z,101473.34
2022-07-30T16:06:49.655Z,101477.38
2022-07-30T16:09:16.590Z,101474.81
2022-07-30T16:11:43.258Z,101469.16
2022-07-30T16:14:10.499Z,101475.53
2022-07-30T16:16:37.206Z,101474.16
2022-07-30T16:19:03.828Z,101480.66
2022-07-30T16:21:30.620Z,101482.72
2022-07-30T16:23:57.287Z,101479.31
2022-07-30T16:26:23.963Z,101481.69
2022-07-30T16:28:51.080Z,101472.44
2022-07-30T16:31:17.751Z,101478.44
2022-07-30T16:33:44.387Z,101482.34
2022-07-30T16:36:11.528Z,101488.31
2022-07-30T16:38:38.171Z,101486.09
2022-07-30T16:41:04.893Z,101485.06
2022-07-30T16:43:32.702Z,101482.47
2022-07-30T16:45:59.869Z,101486.38
2022-07-30T16:48:26.951Z,101474.56
2022-07-30T16:50:54.100Z,101484.94
2022-07-30T16:53:21.417Z,101481.44
2022-07-30T16:55:48.326Z,101475.41
2022-07-30T16:58:14.990Z,101480.41
2022-07-30T17:00:42.314Z,101483.94
2022-07-30T17:03:09.114Z,101483.50
2022-07-30T17:05:35.979Z,101485.09
2022-07-30T17:08:11.591Z,101488.56
2022-07-30T17:10:38.480Z,101488.34
2022-07-30T17:13:07.679Z,101490.81
2022-07-30T17:15:34.408Z,101483.69
2022-07-30T17:18:01.967Z,101481.38
2022-07-30T17:20:30.126Z,101476.06
2022-07-30T17:22:56.787Z,101489.06
2022-07-30T17:25:28.743Z,101490.91
2022-07-30T17:27:59.259Z,101488.47
2022-07-30T17:30:30.449Z,101490.13
2022-07-30T17:32:57.871Z,101486.53
2022-07-30T17:35:27.378Z,101486.97
2022-07-30T17:37:54.161Z,101484.25
2022-07-30T17:40:30.702Z,101487.63
2022-07-30T17:43:04.076Z,101487.97
2022-07-30T17:45:34.788Z,101479.19
2022-07-30T17:48:01.970Z,101482.16
2022-07-30T17:50:29.912Z,101484.81
2022-07-30T17:52:56.806Z,101487.94
2022-07-30T17:55:23.720Z,101487.47
2022-07-30T17:57:50.340Z,101496.38
2022-07-30T18:00:17.550Z,101486.44
2022-07-30T18:02:44.151Z,101488.13
2022-07-30T18:05:11.171Z,101494.47
2022-07-30T18:07:37.798Z,101506.09
2022-07-30T18:10:04.811Z,101498.47
2022-07-30T18:12:31.551Z,101502.09
2022-07-30T18:14:59.003Z,101504.81
2022-07-30T18:17:28.617Z,101495.00
2022-07-30T18:19:55.264Z,101499.44
2022-07-30T18:22:29.061Z,101493.06
2022-07-30T18:24:57.127Z,101500.38
2022-07-30T18:27:23.832Z,101501.97
2022-07-30T18:29:50.544Z,101508.88
2022-07-30T18:32:17.205Z,101497.81
2022-07-30T18:34:44.115Z,101502.94
2022-07-30T18:37:10.836Z,101502.69
2022-07-30T18:39:37.581Z,101501.31
2022-07-30T18:42:04.929Z,101500.47
2022-07-30T18:44:31.969Z,101500.19
2022-07-30T18:46:58.616Z,101501.66
2022-07-30T18:49:40.714Z,101497.47
2022-07-30T18:52:08.031Z,101501.03
2022-07-30T18:54:35.651Z,101492.44
2022-07-30T18:57:02.403Z,101493.53
2022-07-30T18:59:29.323Z,101492.28
2022-07-30T19:01:55.969Z,101492.66
2022-07-30T19:04:22.736Z,101492.03
2022-07-30T19:06:49.344Z,101490.63
2022-07-30T19:09:17.992Z,101495.41
2022-07-30T19:11:46.164Z,101487.38
2022-07-30T19:14:14.267Z,101494.88
2022-07-30T19:16:42.822Z,101494.38
2022-07-30T19:19:10.401Z,101490.44
2022-07-30T19:21:37.004Z,101495.53
2022-07-30T19:24:03.905Z,101489.75
2022-07-30T19:26:30.619Z,101482.22
2022-07-30T19:28:57.959Z,101489.81
2022-07-30T19:31:24.828Z,101490.06
2022-07-30T19:33:51.551Z,101492.97
2022-07-30T19:36:21.090Z,101487.03
2022-07-30T19:38:49.013Z,101488.38
2022-07-30T19:41:16.616Z,101487.75
2022-07-30T19:43:43.351Z,101490.47
2022-07-30T19:46:24.553Z,101492.72
2022-07-30T19:48:51.290Z,101486.91
2022-07-30T19:51:21.054Z,101488.22
2022-07-30T19:53:52.168Z,101491.03
2022-07-30T19:56:19.573Z,101491.03
2022-07-30T19:58:46.348Z,101500.00
2022-07-30T20:01:15.799Z,101492.97
2022-07-30T20:03:45.802Z,101495.81
2022-07-30T20:06:15.400Z,101500.56
2022-07-30T20:08:44.753Z,101506.19
2022-07-30T20:13:59.028Z,101500.88
2022-07-30T20:16:26.243Z,101499.28
2022-07-30T20:18:54.510Z,101495.19
2022-07-30T20:21:21.196Z,101505.44
2022-07-30T20:24:07.967Z,101509.25
2022-07-30T20:26:35.822Z,101507.50
2022-07-30T20:29:02.627Z,101496.81
2022-07-30T20:31:35.991Z,101506.84
2022-07-30T20:34:04.899Z,101503.50
2022-07-30T20:36:42.955Z,101506.44
2022-07-30T20:39:10.560Z,101507.75
2022-07-30T20:41:40.062Z,101504.41
2022-07-30T20:44:11.114Z,101503.66
2022-07-30T20:46:40.212Z,101499.44
2022-07-30T20:49:06.862Z,101505.81
2022-07-30T20:51:33.955Z,101502.22
2022-07-30T20:54:00.903Z,101498.81
2022-07-30T20:56:28.476Z,101492.63
2022-07-30T20:59:04.247Z,101498.88
2022-07-30T21:01:30.982Z,101500.72
2022-07-30T21:03:57.718Z,101502.78
2022-07-30T21:06:26.180Z,101502.97
2022-07-30T21:08:53.602Z,101500.25
2022-07-30T21:11:25.506Z,101498.75
2022-07-30T21:13:52.519Z,101496.69
2022-07-30T21:16:23.124Z,101500.72
2022-07-30T21:18:50.680Z,101503.72
2022-07-30T21:21:29.132Z,101485.94
2022-07-30T21:24:06.032Z,101497.13
2022-07-30T21:26:40.514Z,101503.81
2022-07-30T21:29:08.059Z,101501.31
2022-07-30T21:32:00.602Z,101503.34
2022-07-30T21:34:26.509Z,101502.91
2022-07-30T21:36:54.106Z,101496.22
2022-07-30T21:39:29.184Z,101507.19
2022-07-30T21:41:56.379Z,101500.09
2022-07-30T21:44:23.005Z,101498.38
2022-07-30T21:46:50.598Z,101492.31
2022-07-30T21:49:17.437Z,101494.44
2022-07-30T21:51:44.513Z,101497.34
2022-07-30T21:54:11.219Z,101500.03
2022-07-30T21:56:41.456Z,101495.84
2022-07-30T21:59:08.575Z,101499.59
2022-07-30T22:01:38.782Z,101492.66
2022-07-30T22:04:14.005Z,101501.06
2022-07-30T22:06:43.531Z,101504.94
2022-07-30T22:12:09.224Z,101503.88
2022-07-30T22:14:50.276Z,101505.06
2022-07-30T22:20:08.693Z,101505.47
2022-07-30T22:22:38.016Z,101498.75
2022-07-30T22:25:06.767Z,101498.94
2022-07-30T22:27:55.924Z,101500.91
2022-07-30T22:30:27.012Z,101502.81
2022-07-30T22:32:54.995Z,101502.16
2022-07-30T22:35:33.813Z,101508.59
2022-07-30T22:38:02.157Z,101499.09
2022-07-30T22:40:29.537Z,101504.00
2022-07-30T22:42:56.724Z,101504.38
2022-07-30T22:45:46.851Z,101496.63
2022-07-30T22:48:11.422Z,101506.91
2022-07-30T22:50:40.023Z,101499.06
2022-07-30T22:53:16.533Z,101502.84
2022-07-30T22:55:54.899Z,101505.72
2022-07-30T22:58:21.987Z,101505.91
2022-07-30T23:00:55.460Z,101508.00
2022-07-30T23:03:22.217Z,101498.53
2022-07-30T23:05:55.340Z,101498.78
2022-07-30T23:08:29.647Z,101501.84
2022-07-30T23:10:58.074Z,101503.97
2022-07-30T23:12:16.986Z,101504.44
2022-07-30T23:12:28.284Z,101498.00
2022-07-30T23:12:32.894Z,101496.22
2022-07-30T23:13:24.800Z,101506.84
2022-07-30T23:15:51.404Z,101505.22
2022-07-30T23:18:18.006Z,101500.13
2022-07-30T23:20:44.637Z,101509.41
2022-07-30T23:23:13.939Z,101502.69
2022-07-30T23:25:40.709Z,101503.16
2022-07-30T23:28:07.320Z,101503.44
2022-07-30T23:30:34.484Z,101504.31
2022-07-30T23:33:01.441Z,101501.00
2022-07-30T23:35:28.056Z,101499.47
2022-07-30T23:37:54.655Z,101499.66
2022-07-30T23:40:21.364Z,101494.28
2022-07-30T23:42:50.271Z,101495.25
2022-07-30T23:45:17.780Z,101487.34
2022-07-30T23:48:00.638Z,101488.66
2022-07-30T23:50:33.897Z,101480.88
2022-07-30T23:53:01.951Z,101492.72
2022-07-30T23:55:30.515Z,101488.69
2022-07-30T23:58:00.305Z,101491.72
